Terminal Aerodrome Forecast
Issued by NWS Wilmington, OH

Current Version | Previous Version | Graphics & Text | Print | Product List | Glossary On
Versions: 1 2 3 4 5 6 7 8 9 10 11 12 13 14 15 16 17 18 19 20 21 22 23 24 25 26
000
FTUS41 KILN 210300 AAA
TAFILN
TAF AMD
KILN 210303Z 2103/2124 00000KT 3SM BR VCSH SCT050 BKN080
      TEMPO 2103/2104 1 1/2SM BR
     FM210600 30006KT P6SM SCT012 BKN070
     FM210900 31007KT P6SM BKN012
     FM211500 32010KT P6SM BKN025 OVC070
     FM211800 32011G19KT P6SM OVC035
     FM212200 33010KT P6SM OVC025=

USA.gov is the U.S. government's official web portal to all federal, state and local government web resources and services.